sensor_id;sensor_type;location;lat;lon;timestamp;P1;durP1;ratioP1;P2;durP2;ratioP2
73150;SDS011;61354;50.758;6.106;2022-12-07T00:00:27;17.50;;;10.32;;
73150;SDS011;61354;50.758;6.106;2022-12-07T00:02:53;18.83;;;11.15;;
73150;SDS011;61354;50.758;6.106;2022-12-07T00:05:18;20.30;;;10.20;;
73150;SDS011;61354;50.758;6.106;2022-12-07T00:07:44;19.17;;;10.68;;
73150;SDS011;61354;50.758;6.106;2022-12-07T00:10:09;22.33;;;10.50;;
73150;SDS011;61354;50.758;6.106;2022-12-07T00:12:35;17.25;;;10.07;;
73150;SDS011;61354;50.758;6.106;2022-12-07T00:15:00;16.90;;;10.10;;
73150;SDS011;61354;50.758;6.106;2022-12-07T00:17:25;18.80;;;11.02;;
73150;SDS011;61354;50.758;6.106;2022-12-07T00:19:51;20.85;;;11.18;;
73150;SDS011;61354;50.758;6.106;2022-12-07T00:22:16;15.10;;;9.82;;
73150;SDS011;61354;50.758;6.106;2022-12-07T00:24:42;19.08;;;10.07;;
73150;SDS011;61354;50.758;6.106;2022-12-07T00:27:07;17.98;;;11.00;;
73150;SDS011;61354;50.758;6.106;2022-12-07T00:29:32;18.02;;;10.55;;
73150;SDS011;61354;50.758;6.106;2022-12-07T00:31:58;17.45;;;9.38;;
73150;SDS011;61354;50.758;6.106;2022-12-07T00:34:23;20.88;;;11.32;;
73150;SDS011;61354;50.758;6.106;2022-12-07T00:36:49;16.15;;;9.73;;
73150;SDS011;61354;50.758;6.106;2022-12-07T00:39:15;18.08;;;10.77;;
73150;SDS011;61354;50.758;6.106;2022-12-07T00:41:41;17.33;;;9.43;;
73150;SDS011;61354;50.758;6.106;2022-12-07T00:44:06;17.65;;;9.88;;
73150;SDS011;61354;50.758;6.106;2022-12-07T00:46:32;16.67;;;9.73;;
73150;SDS011;61354;50.758;6.106;2022-12-07T00:48:57;17.25;;;10.43;;
73150;SDS011;61354;50.758;6.106;2022-12-07T00:51:23;20.63;;;11.15;;
73150;SDS011;61354;50.758;6.106;2022-12-07T00:53:50;18.80;;;10.80;;
73150;SDS011;61354;50.758;6.106;2022-12-07T00:58:43;19.40;;;10.82;;
73150;SDS011;61354;50.758;6.106;2022-12-07T01:01:08;17.58;;;11.32;;
73150;SDS011;61354;50.758;6.106;2022-12-07T01:03:35;17.48;;;10.43;;
73150;SDS011;61354;50.758;6.106;2022-12-07T01:06:02;15.43;;;9.38;;
73150;SDS011;61354;50.758;6.106;2022-12-07T01:08:28;18.60;;;10.50;;
73150;SDS011;61354;50.758;6.106;2022-12-07T01:13:32;13.68;;;8.90;;
73150;SDS011;61354;50.758;6.106;2022-12-07T01:16:00;15.15;;;9.20;;
73150;SDS011;61354;50.758;6.106;2022-12-07T01:18:27;14.77;;;8.50;;
73150;SDS011;61354;50.758;6.106;2022-12-07T01:21:12;14.20;;;9.48;;
73150;SDS011;61354;50.758;6.106;2022-12-07T01:23:40;15.65;;;8.68;;
73150;SDS011;61354;50.758;6.106;2022-12-07T01:26:07;14.30;;;8.52;;
73150;SDS011;61354;50.758;6.106;2022-12-07T01:28:35;14.35;;;8.93;;
73150;SDS011;61354;50.758;6.106;2022-12-07T01:31:02;14.65;;;8.80;;
73150;SDS011;61354;50.758;6.106;2022-12-07T01:33:35;15.27;;;8.85;;
73150;SDS011;61354;50.758;6.106;2022-12-07T01:36:06;14.52;;;8.25;;
73150;SDS011;61354;50.758;6.106;2022-12-07T01:38:45;15.95;;;9.20;;
73150;SDS011;61354;50.758;6.106;2022-12-07T01:41:12;16.98;;;9.13;;
73150;SDS011;61354;50.758;6.106;2022-12-07T01:46:34;18.17;;;9.95;;
73150;SDS011;61354;50.758;6.106;2022-12-07T01:49:00;17.83;;;11.18;;
73150;SDS011;61354;50.758;6.106;2022-12-07T01:51:26;20.25;;;11.27;;
73150;SDS011;61354;50.758;6.106;2022-12-07T01:53:53;20.70;;;11.13;;
73150;SDS011;61354;50.758;6.106;2022-12-07T01:56:19;18.88;;;9.68;;
73150;SDS011;61354;50.758;6.106;2022-12-07T01:58:49;22.38;;;13.05;;
73150;SDS011;61354;50.758;6.106;2022-12-07T02:01:16;25.17;;;12.63;;
73150;SDS011;61354;50.758;6.106;2022-12-07T02:03:43;28.05;;;13.55;;
73150;SDS011;61354;50.758;6.106;2022-12-07T02:06:10;23.63;;;13.10;;
73150;SDS011;61354;50.758;6.106;2022-12-07T02:08:40;20.50;;;12.10;;
73150;SDS011;61354;50.758;6.106;2022-12-07T02:11:07;21.95;;;12.73;;
73150;SDS011;61354;50.758;6.106;2022-12-07T02:13:34;20.13;;;11.45;;
73150;SDS011;61354;50.758;6.106;2022-12-07T02:24:16;21.35;;;12.48;;
73150;SDS011;61354;50.758;6.106;2022-12-07T02:27:00;21.77;;;11.32;;
73150;SDS011;61354;50.758;6.106;2022-12-07T02:29:33;23.58;;;11.95;;
73150;SDS011;61354;50.758;6.106;2022-12-07T02:32:04;25.02;;;12.85;;
73150;SDS011;61354;50.758;6.106;2022-12-07T02:34:58;19.27;;;11.90;;
73150;SDS011;61354;50.758;6.106;2022-12-07T02:37:32;20.08;;;11.07;;
73150;SDS011;61354;50.758;6.106;2022-12-07T02:40:27;21.70;;;12.43;;
73150;SDS011;61354;50.758;6.106;2022-12-07T02:42:50;20.83;;;11.15;;
73150;SDS011;61354;50.758;6.106;2022-12-07T02:45:23;20.30;;;12.05;;
73150;SDS011;61354;50.758;6.106;2022-12-07T02:47:53;22.35;;;12.50;;
73150;SDS011;61354;50.758;6.106;2022-12-07T02:50:21;19.20;;;12.57;;
73150;SDS011;61354;50.758;6.106;2022-12-07T02:52:47;20.25;;;10.52;;
73150;SDS011;61354;50.758;6.106;2022-12-07T02:55:13;18.52;;;10.77;;
73150;SDS011;61354;50.758;6.106;2022-12-07T02:58:27;23.52;;;11.43;;
73150;SDS011;61354;50.758;6.106;2022-12-07T03:00:44;16.85;;;8.20;;
73150;SDS011;61354;50.758;6.106;2022-12-07T03:03:30;19.92;;;10.73;;
73150;SDS011;61354;50.758;6.106;2022-12-07T03:11:48;19.40;;;10.77;;
73150;SDS011;61354;50.758;6.106;2022-12-07T03:16:52;22.88;;;12.23;;
73150;SDS011;61354;50.758;6.106;2022-12-07T03:19:24;17.88;;;10.45;;
73150;SDS011;61354;50.758;6.106;2022-12-07T03:24:27;19.48;;;10.02;;
73150;SDS011;61354;50.758;6.106;2022-12-07T03:27:09;18.10;;;9.13;;
73150;SDS011;61354;50.758;6.106;2022-12-07T03:29:44;17.10;;;10.38;;
73150;SDS011;61354;50.758;6.106;2022-12-07T03:35:39;17.40;;;9.82;;
73150;SDS011;61354;50.758;6.106;2022-12-07T03:37:55;17.35;;;10.10;;
73150;SDS011;61354;50.758;6.106;2022-12-07T03:43:09;20.80;;;10.43;;
73150;SDS011;61354;50.758;6.106;2022-12-07T03:45:50;17.13;;;9.60;;
73150;SDS011;61354;50.758;6.106;2022-12-07T03:48:30;19.85;;;10.25;;
73150;SDS011;61354;50.758;6.106;2022-12-07T03:51:13;18.00;;;10.05;;
73150;SDS011;61354;50.758;6.106;2022-12-07T03:53:47;17.35;;;8.88;;
73150;SDS011;61354;50.758;6.106;2022-12-07T03:56:19;16.75;;;9.60;;
73150;SDS011;61354;50.758;6.106;2022-12-07T03:58:46;17.13;;;10.18;;
73150;SDS011;61354;50.758;6.106;2022-12-07T04:01:12;19.88;;;9.90;;
73150;SDS011;61354;50.758;6.106;2022-12-07T04:03:38;18.58;;;10.32;;
73150;SDS011;61354;50.758;6.106;2022-12-07T04:06:03;20.27;;;11.65;;
73150;SDS011;61354;50.758;6.106;2022-12-07T04:08:29;18.17;;;10.63;;
73150;SDS011;61354;50.758;6.106;2022-12-07T04:10:55;18.00;;;11.23;;
73150;SDS011;61354;50.758;6.106;2022-12-07T04:13:20;17.83;;;9.95;;
73150;SDS011;61354;50.758;6.106;2022-12-07T04:15:46;16.83;;;10.30;;
73150;SDS011;61354;50.758;6.106;2022-12-07T04:18:11;17.15;;;10.02;;
73150;SDS011;61354;50.758;6.106;2022-12-07T04:20:37;20.88;;;9.90;;
73150;SDS011;61354;50.758;6.106;2022-12-07T04:23:02;19.98;;;11.65;;
73150;SDS011;61354;50.758;6.106;2022-12-07T04:25:28;23.27;;;11.80;;
73150;SDS011;61354;50.758;6.106;2022-12-07T04:27:53;21.48;;;10.40;;
73150;SDS011;61354;50.758;6.106;2022-12-07T04:30:19;16.55;;;9.88;;
73150;SDS011;61354;50.758;6.106;2022-12-07T04:32:44;19.08;;;10.13;;
73150;SDS011;61354;50.758;6.106;2022-12-07T04:35:10;17.00;;;9.90;;
73150;SDS011;61354;50.758;6.106;2022-12-07T04:37:35;18.05;;;10.18;;
73150;SDS011;61354;50.758;6.106;2022-12-07T04:40:01;18.42;;;9.85;;
73150;SDS011;61354;50.758;6.106;2022-12-07T04:42:26;18.13;;;9.13;;
73150;SDS011;61354;50.758;6.106;2022-12-07T04:44:52;17.15;;;9.65;;
73150;SDS011;61354;50.758;6.106;2022-12-07T04:47:18;18.73;;;9.80;;
73150;SDS011;61354;50.758;6.106;2022-12-07T04:49:43;19.88;;;10.93;;
73150;SDS011;61354;50.758;6.106;2022-12-07T04:52:09;17.58;;;9.80;;
73150;SDS011;61354;50.758;6.106;2022-12-07T04:54:34;18.08;;;10.15;;
73150;SDS011;61354;50.758;6.106;2022-12-07T04:57:00;18.50;;;9.82;;
73150;SDS011;61354;50.758;6.106;2022-12-07T04:59:25;19.33;;;9.88;;
73150;SDS011;61354;50.758;6.106;2022-12-07T05:01:50;16.95;;;9.52;;
73150;SDS011;61354;50.758;6.106;2022-12-07T05:04:16;18.50;;;9.65;;
73150;SDS011;61354;50.758;6.106;2022-12-07T05:06:42;18.83;;;10.35;;
73150;SDS011;61354;50.758;6.106;2022-12-07T05:09:08;19.00;;;10.75;;
73150;SDS011;61354;50.758;6.106;2022-12-07T05:11:34;21.40;;;9.43;;
73150;SDS011;61354;50.758;6.106;2022-12-07T05:14:18;20.33;;;10.68;;
73150;SDS011;61354;50.758;6.106;2022-12-07T05:16:46;17.73;;;9.43;;
73150;SDS011;61354;50.758;6.106;2022-12-07T05:19:14;17.92;;;9.45;;
73150;SDS011;61354;50.758;6.106;2022-12-07T05:21:40;18.38;;;9.55;;
73150;SDS011;61354;50.758;6.106;2022-12-07T05:24:06;18.65;;;8.70;;
73150;SDS011;61354;50.758;6.106;2022-12-07T05:26:33;17.95;;;8.75;;
73150;SDS011;61354;50.758;6.106;2022-12-07T05:28:59;15.98;;;8.02;;
73150;SDS011;61354;50.758;6.106;2022-12-07T05:31:25;18.45;;;8.88;;
73150;SDS011;61354;50.758;6.106;2022-12-07T05:33:51;15.68;;;8.43;;
73150;SDS011;61354;50.758;6.106;2022-12-07T05:36:17;16.83;;;9.18;;
73150;SDS011;61354;50.758;6.106;2022-12-07T05:38:42;15.93;;;9.13;;
73150;SDS011;61354;50.758;6.106;2022-12-07T05:41:08;14.68;;;8.27;;
73150;SDS011;61354;50.758;6.106;2022-12-07T05:43:58;16.27;;;8.20;;
73150;SDS011;61354;50.758;6.106;2022-12-07T05:46:23;12.90;;;8.27;;
73150;SDS011;61354;50.758;6.106;2022-12-07T05:48:49;12.98;;;7.28;;
73150;SDS011;61354;50.758;6.106;2022-12-07T05:51:14;13.15;;;7.25;;
73150;SDS011;61354;50.758;6.106;2022-12-07T05:53:40;14.38;;;7.20;;
73150;SDS011;61354;50.758;6.106;2022-12-07T05:56:08;15.25;;;7.32;;
73150;SDS011;61354;50.758;6.106;2022-12-07T05:58:33;13.70;;;8.00;;
73150;SDS011;61354;50.758;6.106;2022-12-07T06:01:17;14.07;;;7.15;;
73150;SDS011;61354;50.758;6.106;2022-12-07T06:03:43;11.80;;;6.78;;
73150;SDS011;61354;50.758;6.106;2022-12-07T06:06:08;14.93;;;7.55;;
73150;SDS011;61354;50.758;6.106;2022-12-07T06:08:33;12.25;;;6.68;;
73150;SDS011;61354;50.758;6.106;2022-12-07T06:10:59;12.90;;;6.53;;
73150;SDS011;61354;50.758;6.106;2022-12-07T06:13:43;13.40;;;7.03;;
73150;SDS011;61354;50.758;6.106;2022-12-07T06:16:08;13.32;;;6.35;;
73150;SDS011;61354;50.758;6.106;2022-12-07T06:18:34;16.75;;;7.60;;
73150;SDS011;61354;50.758;6.106;2022-12-07T06:20:59;12.98;;;6.97;;
73150;SDS011;61354;50.758;6.106;2022-12-07T06:23:25;14.25;;;6.63;;
73150;SDS011;61354;50.758;6.106;2022-12-07T06:25:50;12.35;;;6.28;;
73150;SDS011;61354;50.758;6.106;2022-12-07T06:28:18;12.00;;;6.32;;
73150;SDS011;61354;50.758;6.106;2022-12-07T06:30:43;12.73;;;6.40;;
73150;SDS011;61354;50.758;6.106;2022-12-07T06:33:09;14.13;;;6.82;;
73150;SDS011;61354;50.758;6.106;2022-12-07T06:35:34;14.70;;;6.32;;
73150;SDS011;61354;50.758;6.106;2022-12-07T06:38:00;13.43;;;5.82;;
73150;SDS011;61354;50.758;6.106;2022-12-07T06:40:25;13.70;;;6.93;;
73150;SDS011;61354;50.758;6.106;2022-12-07T06:42:51;12.63;;;6.55;;
73150;SDS011;61354;50.758;6.106;2022-12-07T06:45:16;13.60;;;6.95;;
73150;SDS011;61354;50.758;6.106;2022-12-07T06:47:42;11.15;;;6.68;;
73150;SDS011;61354;50.758;6.106;2022-12-07T06:50:07;11.07;;;5.85;;
73150;SDS011;61354;50.758;6.106;2022-12-07T06:52:33;12.93;;;7.35;;
73150;SDS011;61354;50.758;6.106;2022-12-07T06:54:59;15.65;;;7.20;;
73150;SDS011;61354;50.758;6.106;2022-12-07T06:57:24;11.32;;;6.78;;
73150;SDS011;61354;50.758;6.106;2022-12-07T06:59:50;14.13;;;8.38;;
73150;SDS011;61354;50.758;6.106;2022-12-07T07:02:15;14.32;;;7.32;;
73150;SDS011;61354;50.758;6.106;2022-12-07T07:04:41;14.85;;;8.07;;
73150;SDS011;61354;50.758;6.106;2022-12-07T07:07:07;14.65;;;7.05;;
73150;SDS011;61354;50.758;6.106;2022-12-07T07:09:32;14.85;;;6.97;;
73150;SDS011;61354;50.758;6.106;2022-12-07T07:11:58;13.40;;;7.20;;
73150;SDS011;61354;50.758;6.106;2022-12-07T07:14:23;11.75;;;6.65;;
73150;SDS011;61354;50.758;6.106;2022-12-07T07:16:48;12.05;;;7.15;;
73150;SDS011;61354;50.758;6.106;2022-12-07T07:19:14;15.73;;;8.45;;
73150;SDS011;61354;50.758;6.106;2022-12-07T07:21:39;16.13;;;7.85;;
73150;SDS011;61354;50.758;6.106;2022-12-07T07:24:05;14.07;;;7.38;;
73150;SDS011;61354;50.758;6.106;2022-12-07T07:26:31;13.43;;;7.70;;
73150;SDS011;61354;50.758;6.106;2022-12-07T07:28:56;16.08;;;7.97;;
73150;SDS011;61354;50.758;6.106;2022-12-07T07:31:21;14.77;;;8.32;;
73150;SDS011;61354;50.758;6.106;2022-12-07T07:33:47;15.57;;;7.57;;
73150;SDS011;61354;50.758;6.106;2022-12-07T07:36:12;18.33;;;8.02;;
73150;SDS011;61354;50.758;6.106;2022-12-07T07:38:38;15.07;;;7.72;;
73150;SDS011;61354;50.758;6.106;2022-12-07T07:41:03;15.68;;;8.60;;
73150;SDS011;61354;50.758;6.106;2022-12-07T07:43:29;13.93;;;7.78;;
73150;SDS011;61354;50.758;6.106;2022-12-07T07:45:54;16.60;;;7.68;;
73150;SDS011;61354;50.758;6.106;2022-12-07T07:48:19;15.93;;;8.40;;
73150;SDS011;61354;50.758;6.106;2022-12-07T07:50:45;15.18;;;7.80;;
73150;SDS011;61354;50.758;6.106;2022-12-07T07:53:10;15.52;;;7.25;;
73150;SDS011;61354;50.758;6.106;2022-12-07T07:55:36;12.15;;;6.18;;
73150;SDS011;61354;50.758;6.106;2022-12-07T07:58:01;13.57;;;6.35;;
73150;SDS011;61354;50.758;6.106;2022-12-07T08:00:27;12.75;;;7.10;;
73150;SDS011;61354;50.758;6.106;2022-12-07T08:02:53;10.13;;;6.05;;
73150;SDS011;61354;50.758;6.106;2022-12-07T08:05:18;11.88;;;6.30;;
73150;SDS011;61354;50.758;6.106;2022-12-07T08:07:44;11.60;;;5.93;;
73150;SDS011;61354;50.758;6.106;2022-12-07T08:10:10;12.65;;;7.28;;
73150;SDS011;61354;50.758;6.106;2022-12-07T08:12:37;11.93;;;6.75;;
73150;SDS011;61354;50.758;6.106;2022-12-07T08:15:25;11.57;;;6.28;;
73150;SDS011;61354;50.758;6.106;2022-12-07T08:17:52;10.70;;;5.75;;
73150;SDS011;61354;50.758;6.106;2022-12-07T08:20:17;12.35;;;6.28;;
73150;SDS011;61354;50.758;6.106;2022-12-07T08:22:43;13.05;;;7.05;;
73150;SDS011;61354;50.758;6.106;2022-12-07T08:25:08;12.00;;;6.20;;
73150;SDS011;61354;50.758;6.106;2022-12-07T08:27:33;13.98;;;6.65;;
73150;SDS011;61354;50.758;6.106;2022-12-07T08:29:59;11.02;;;5.55;;
73150;SDS011;61354;50.758;6.106;2022-12-07T08:32:24;11.52;;;6.55;;
73150;SDS011;61354;50.758;6.106;2022-12-07T08:34:51;11.60;;;6.22;;
73150;SDS011;61354;50.758;6.106;2022-12-07T08:37:17;10.45;;;5.80;;
73150;SDS011;61354;50.758;6.106;2022-12-07T08:39:43;13.25;;;6.20;;
73150;SDS011;61354;50.758;6.106;2022-12-07T08:42:08;15.27;;;6.03;;
73150;SDS011;61354;50.758;6.106;2022-12-07T08:44:33;12.45;;;6.63;;
73150;SDS011;61354;50.758;6.106;2022-12-07T08:47:00;13.48;;;6.55;;
73150;SDS011;61354;50.758;6.106;2022-12-07T08:49:34;13.23;;;6.20;;
73150;SDS011;61354;50.758;6.106;2022-12-07T08:54:29;15.13;;;6.55;;
73150;SDS011;61354;50.758;6.106;2022-12-07T08:56:55;13.98;;;6.13;;
73150;SDS011;61354;50.758;6.106;2022-12-07T08:59:21;13.02;;;6.30;;
73150;SDS011;61354;50.758;6.106;2022-12-07T09:01:48;12.00;;;6.03;;
73150;SDS011;61354;50.758;6.106;2022-12-07T09:04:13;13.70;;;7.70;;
73150;SDS011;61354;50.758;6.106;2022-12-07T09:06:38;13.45;;;6.40;;
73150;SDS011;61354;50.758;6.106;2022-12-07T09:09:04;13.30;;;5.82;;
73150;SDS011;61354;50.758;6.106;2022-12-07T09:11:31;13.80;;;7.05;;
73150;SDS011;61354;50.758;6.106;2022-12-07T09:13:57;13.10;;;6.70;;
73150;SDS011;61354;50.758;6.106;2022-12-07T09:16:22;14.65;;;7.35;;
73150;SDS011;61354;50.758;6.106;2022-12-07T09:18:48;11.07;;;5.95;;
73150;SDS011;61354;50.758;6.106;2022-12-07T09:21:13;15.10;;;7.70;;
73150;SDS011;61354;50.758;6.106;2022-12-07T09:23:39;13.93;;;7.53;;
73150;SDS011;61354;50.758;6.106;2022-12-07T09:26:06;14.00;;;7.85;;
73150;SDS011;61354;50.758;6.106;2022-12-07T09:28:32;13.45;;;7.35;;
73150;SDS011;61354;50.758;6.106;2022-12-07T09:30:57;14.77;;;8.10;;
73150;SDS011;61354;50.758;6.106;2022-12-07T09:33:23;15.02;;;8.18;;
73150;SDS011;61354;50.758;6.106;2022-12-07T09:35:49;16.33;;;7.88;;
73150;SDS011;61354;50.758;6.106;2022-12-07T09:38:16;17.05;;;8.93;;
73150;SDS011;61354;50.758;6.106;2022-12-07T09:40:42;17.95;;;8.55;;
73150;SDS011;61354;50.758;6.106;2022-12-07T09:43:41;16.65;;;8.52;;
73150;SDS011;61354;50.758;6.106;2022-12-07T09:46:01;17.27;;;8.40;;
73150;SDS011;61354;50.758;6.106;2022-12-07T09:48:36;15.23;;;7.70;;
73150;SDS011;61354;50.758;6.106;2022-12-07T09:51:14;16.17;;;8.68;;
73150;SDS011;61354;50.758;6.106;2022-12-07T09:53:43;14.27;;;8.13;;
73150;SDS011;61354;50.758;6.106;2022-12-07T09:56:16;15.15;;;6.70;;
73150;SDS011;61354;50.758;6.106;2022-12-07T09:58:43;14.75;;;8.27;;
73150;SDS011;61354;50.758;6.106;2022-12-07T10:01:19;14.50;;;7.38;;
73150;SDS011;61354;50.758;6.106;2022-12-07T10:03:50;15.68;;;8.00;;
73150;SDS011;61354;50.758;6.106;2022-12-07T10:06:17;12.85;;;7.03;;
73150;SDS011;61354;50.758;6.106;2022-12-07T10:08:43;15.10;;;7.05;;
73150;SDS011;61354;50.758;6.106;2022-12-07T10:11:09;17.02;;;8.05;;
73150;SDS011;61354;50.758;6.106;2022-12-07T10:13:40;14.77;;;7.93;;
73150;SDS011;61354;50.758;6.106;2022-12-07T10:18:49;13.52;;;7.53;;
73150;SDS011;61354;50.758;6.106;2022-12-07T10:21:19;16.60;;;8.00;;
73150;SDS011;61354;50.758;6.106;2022-12-07T10:29:03;14.88;;;8.10;;
73150;SDS011;61354;50.758;6.106;2022-12-07T10:31:40;16.15;;;8.48;;
73150;SDS011;61354;50.758;6.106;2022-12-07T10:34:14;18.27;;;9.63;;
73150;SDS011;61354;50.758;6.106;2022-12-07T10:36:49;17.60;;;9.13;;
73150;SDS011;61354;50.758;6.106;2022-12-07T10:39:16;18.40;;;9.60;;
73150;SDS011;61354;50.758;6.106;2022-12-07T10:44:25;15.63;;;9.25;;
73150;SDS011;61354;50.758;6.106;2022-12-07T11:00:18;11.82;;;6.28;;
73150;SDS011;61354;50.758;6.106;2022-12-07T11:02:57;10.95;;;6.35;;
73150;SDS011;61354;50.758;6.106;2022-12-07T11:11:30;11.05;;;6.00;;
73150;SDS011;61354;50.758;6.106;2022-12-07T11:17:18;10.18;;;7.07;;
73150;SDS011;61354;50.758;6.106;2022-12-07T11:25:07;14.73;;;6.88;;
73150;SDS011;61354;50.758;6.106;2022-12-07T11:27:48;10.23;;;6.07;;
73150;SDS011;61354;50.758;6.106;2022-12-07T11:33:11;10.80;;;5.45;;
73150;SDS011;61354;50.758;6.106;2022-12-07T11:38:21;10.15;;;5.03;;
73150;SDS011;61354;50.758;6.106;2022-12-07T11:40:53;10.25;;;6.18;;
73150;SDS011;61354;50.758;6.106;2022-12-07T11:43:37;12.32;;;5.95;;
73150;SDS011;61354;50.758;6.106;2022-12-07T11:46:18;11.57;;;6.05;;
73150;SDS011;61354;50.758;6.106;2022-12-07T11:49:02;11.95;;;5.72;;
73150;SDS011;61354;50.758;6.106;2022-12-07T11:51:36;9.55;;;5.05;;
73150;SDS011;61354;50.758;6.106;2022-12-07T11:54:25;12.40;;;5.90;;
73150;SDS011;61354;50.758;6.106;2022-12-07T11:56:53;10.10;;;5.00;;
73150;SDS011;61354;50.758;6.106;2022-12-07T12:02:03;8.55;;;4.78;;
73150;SDS011;61354;50.758;6.106;2022-12-07T12:04:51;10.95;;;5.47;;
73150;SDS011;61354;50.758;6.106;2022-12-07T12:07:22;9.70;;;5.30;;
73150;SDS011;61354;50.758;6.106;2022-12-07T12:09:52;9.45;;;4.88;;
73150;SDS011;61354;50.758;6.106;2022-12-07T12:23:17;11.18;;;6.38;;
73150;SDS011;61354;50.758;6.106;2022-12-07T12:31:10;10.95;;;6.50;;
73150;SDS011;61354;50.758;6.106;2022-12-07T12:33:43;11.43;;;6.32;;
73150;SDS011;61354;50.758;6.106;2022-12-07T12:46:53;10.82;;;5.78;;
73150;SDS011;61354;50.758;6.106;2022-12-07T12:59:41;8.38;;;5.22;;
73150;SDS011;61354;50.758;6.106;2022-12-07T13:13:00;8.70;;;5.13;;
73150;SDS011;61354;50.758;6.106;2022-12-07T13:23:21;10.20;;;5.85;;
73150;SDS011;61354;50.758;6.106;2022-12-07T13:28:51;9.23;;;5.03;;
73150;SDS011;61354;50.758;6.106;2022-12-07T13:31:25;8.55;;;4.60;;
73150;SDS011;61354;50.758;6.106;2022-12-07T13:33:55;9.45;;;4.60;;
73150;SDS011;61354;50.758;6.106;2022-12-07T13:36:21;10.95;;;5.60;;
73150;SDS011;61354;50.758;6.106;2022-12-07T13:38:50;11.13;;;5.90;;
73150;SDS011;61354;50.758;6.106;2022-12-07T13:41:21;11.00;;;5.80;;
73150;SDS011;61354;50.758;6.106;2022-12-07T13:43:50;8.85;;;5.57;;
73150;SDS011;61354;50.758;6.106;2022-12-07T13:46:17;8.55;;;5.45;;
73150;SDS011;61354;50.758;6.106;2022-12-07T13:48:47;10.48;;;5.38;;
73150;SDS011;61354;50.758;6.106;2022-12-07T13:51:27;9.32;;;5.10;;
73150;SDS011;61354;50.758;6.106;2022-12-07T13:53:54;9.48;;;5.15;;
73150;SDS011;61354;50.758;6.106;2022-12-07T13:56:28;9.27;;;5.20;;
73150;SDS011;61354;50.758;6.106;2022-12-07T13:58:58;9.73;;;5.07;;
73150;SDS011;61354;50.758;6.106;2022-12-07T14:01:24;9.20;;;4.95;;
73150;SDS011;61354;50.758;6.106;2022-12-07T14:03:50;11.15;;;5.25;;
73150;SDS011;61354;50.758;6.106;2022-12-07T14:06:17;9.05;;;5.10;;
73150;SDS011;61354;50.758;6.106;2022-12-07T14:09:05;11.18;;;6.43;;
73150;SDS011;61354;50.758;6.106;2022-12-07T14:11:32;10.55;;;5.90;;
73150;SDS011;61354;50.758;6.106;2022-12-07T14:13:59;10.50;;;5.60;;
73150;SDS011;61354;50.758;6.106;2022-12-07T14:16:31;9.15;;;5.53;;
73150;SDS011;61354;50.758;6.106;2022-12-07T14:19:00;11.77;;;4.93;;
73150;SDS011;61354;50.758;6.106;2022-12-07T14:21:31;10.52;;;5.88;;
73150;SDS011;61354;50.758;6.106;2022-12-07T14:26:40;9.65;;;5.50;;
73150;SDS011;61354;50.758;6.106;2022-12-07T14:31:50;8.70;;;5.25;;
73150;SDS011;61354;50.758;6.106;2022-12-07T14:34:19;10.38;;;5.60;;
73150;SDS011;61354;50.758;6.106;2022-12-07T14:36:45;9.50;;;5.82;;
73150;SDS011;61354;50.758;6.106;2022-12-07T14:39:11;10.40;;;6.10;;
73150;SDS011;61354;50.758;6.106;2022-12-07T14:41:36;11.98;;;5.57;;
73150;SDS011;61354;50.758;6.106;2022-12-07T14:44:17;9.07;;;5.75;;
73150;SDS011;61354;50.758;6.106;2022-12-07T14:46:44;11.07;;;6.25;;
73150;SDS011;61354;50.758;6.106;2022-12-07T14:49:10;10.40;;;5.75;;
73150;SDS011;61354;50.758;6.106;2022-12-07T14:51:35;8.23;;;5.22;;
73150;SDS011;61354;50.758;6.106;2022-12-07T14:54:05;9.45;;;5.70;;
73150;SDS011;61354;50.758;6.106;2022-12-07T14:56:36;7.13;;;5.32;;
73150;SDS011;61354;50.758;6.106;2022-12-07T14:59:02;12.63;;;6.03;;
73150;SDS011;61354;50.758;6.106;2022-12-07T15:01:27;12.32;;;5.72;;
73150;SDS011;61354;50.758;6.106;2022-12-07T15:03:53;9.38;;;5.78;;
73150;SDS011;61354;50.758;6.106;2022-12-07T15:06:18;11.75;;;5.93;;
73150;SDS011;61354;50.758;6.106;2022-12-07T15:08:44;8.45;;;5.38;;
73150;SDS011;61354;50.758;6.106;2022-12-07T15:11:16;10.07;;;5.47;;
73150;SDS011;61354;50.758;6.106;2022-12-07T15:13:42;8.52;;;5.30;;
73150;SDS011;61354;50.758;6.106;2022-12-07T15:16:26;8.88;;;4.82;;
73150;SDS011;61354;50.758;6.106;2022-12-07T15:18:51;8.02;;;4.88;;
73150;SDS011;61354;50.758;6.106;2022-12-07T15:21:17;7.80;;;4.43;;
73150;SDS011;61354;50.758;6.106;2022-12-07T15:23:42;7.95;;;4.55;;
73150;SDS011;61354;50.758;6.106;2022-12-07T15:26:11;9.07;;;4.82;;
73150;SDS011;61354;50.758;6.106;2022-12-07T15:28:37;6.57;;;4.95;;
73150;SDS011;61354;50.758;6.106;2022-12-07T15:31:02;6.75;;;4.70;;
73150;SDS011;61354;50.758;6.106;2022-12-07T15:33:28;8.27;;;5.35;;
73150;SDS011;61354;50.758;6.106;2022-12-07T15:35:53;7.38;;;4.30;;
73150;SDS011;61354;50.758;6.106;2022-12-07T15:38:19;8.93;;;4.78;;
73150;SDS011;61354;50.758;6.106;2022-12-07T15:40:47;8.27;;;5.03;;
73150;SDS011;61354;50.758;6.106;2022-12-07T15:43:13;8.75;;;4.82;;
73150;SDS011;61354;50.758;6.106;2022-12-07T15:45:57;8.55;;;4.45;;
73150;SDS011;61354;50.758;6.106;2022-12-07T15:48:22;7.03;;;3.85;;
73150;SDS011;61354;50.758;6.106;2022-12-07T15:50:48;15.73;;;7.32;;
73150;SDS011;61354;50.758;6.106;2022-12-07T15:53:13;7.30;;;4.15;;
73150;SDS011;61354;50.758;6.106;2022-12-07T15:55:39;7.80;;;5.10;;
73150;SDS011;61354;50.758;6.106;2022-12-07T15:58:05;7.75;;;4.63;;
73150;SDS011;61354;50.758;6.106;2022-12-07T16:00:31;9.60;;;4.57;;
73150;SDS011;61354;50.758;6.106;2022-12-07T16:02:57;8.45;;;4.82;;
73150;SDS011;61354;50.758;6.106;2022-12-07T16:05:22;10.07;;;5.05;;
73150;SDS011;61354;50.758;6.106;2022-12-07T16:07:48;8.20;;;4.68;;
73150;SDS011;61354;50.758;6.106;2022-12-07T16:10:13;8.32;;;4.45;;
73150;SDS011;61354;50.758;6.106;2022-12-07T16:12:39;6.68;;;4.47;;
73150;SDS011;61354;50.758;6.106;2022-12-07T16:15:04;8.70;;;4.43;;
73150;SDS011;61354;50.758;6.106;2022-12-07T16:17:31;10.38;;;4.82;;
73150;SDS011;61354;50.758;6.106;2022-12-07T16:19:57;9.60;;;4.55;;
73150;SDS011;61354;50.758;6.106;2022-12-07T16:22:23;6.65;;;4.25;;
73150;SDS011;61354;50.758;6.106;2022-12-07T16:24:48;7.63;;;4.25;;
73150;SDS011;61354;50.758;6.106;2022-12-07T16:27:14;7.40;;;4.30;;
73150;SDS011;61354;50.758;6.106;2022-12-07T16:29:39;5.68;;;3.70;;
73150;SDS011;61354;50.758;6.106;2022-12-07T16:32:05;7.15;;;4.40;;
73150;SDS011;61354;50.758;6.106;2022-12-07T16:34:30;7.03;;;3.80;;
73150;SDS011;61354;50.758;6.106;2022-12-07T16:36:56;9.05;;;4.18;;
73150;SDS011;61354;50.758;6.106;2022-12-07T16:39:21;8.05;;;4.60;;
73150;SDS011;61354;50.758;6.106;2022-12-07T16:41:47;7.10;;;4.45;;
73150;SDS011;61354;50.758;6.106;2022-12-07T16:44:12;8.13;;;4.88;;
73150;SDS011;61354;50.758;6.106;2022-12-07T16:46:38;9.50;;;5.50;;
73150;SDS011;61354;50.758;6.106;2022-12-07T16:49:04;9.00;;;4.90;;
73150;SDS011;61354;50.758;6.106;2022-12-07T16:51:30;7.90;;;5.20;;
73150;SDS011;61354;50.758;6.106;2022-12-07T16:53:56;7.80;;;4.93;;
73150;SDS011;61354;50.758;6.106;2022-12-07T16:56:22;7.00;;;4.85;;
73150;SDS011;61354;50.758;6.106;2022-12-07T16:58:49;8.40;;;4.57;;
73150;SDS011;61354;50.758;6.106;2022-12-07T17:01:18;7.72;;;4.75;;
73150;SDS011;61354;50.758;6.106;2022-12-07T17:03:47;8.43;;;4.95;;
73150;SDS011;61354;50.758;6.106;2022-12-07T17:06:14;10.35;;;5.25;;